sensor_id;sensor_type;location;lat;lon;timestamp;temperature;humidity
9043;DHT22;4556;49.150;8.808;2023-02-26T00:01:36;0.60;99.90
9043;DHT22;4556;49.150;8.808;2023-02-26T00:04:05;-0.20;99.90
9043;DHT22;4556;49.150;8.808;2023-02-26T00:06:35;0.20;99.90
9043;DHT22;4556;49.150;8.808;2023-02-26T00:09:03;0.30;99.90
9043;DHT22;4556;49.150;8.808;2023-02-26T00:14:00;0.00;99.90
9043;DHT22;4556;49.150;8.808;2023-02-26T00:16:30;0.70;99.90
9043;DHT22;4556;49.150;8.808;2023-02-26T00:18:59;0.10;99.90
9043;DHT22;4556;49.150;8.808;2023-02-26T00:21:28;-0.10;99.90
9043;DHT22;4556;49.150;8.808;2023-02-26T00:23:56;0.00;99.90
9043;DHT22;4556;49.150;8.808;2023-02-26T00:26:25;1.50;99.90
9043;DHT22;4556;49.150;8.808;2023-02-26T00:28:53;0.00;99.90
9043;DHT22;4556;49.150;8.808;2023-02-26T00:31:22;-0.10;99.90
9043;DHT22;4556;49.150;8.808;2023-02-26T00:33:50;0.00;99.90
9043;DHT22;4556;49.150;8.808;2023-02-26T00:36:22;0.00;99.90
9043;DHT22;4556;49.150;8.808;2023-02-26T00:38:59;1.20;99.90
9043;DHT22;4556;49.150;8.808;2023-02-26T00:41:32;2.90;99.90
9043;DHT22;4556;49.150;8.808;2023-02-26T00:44:00;-0.20;99.90
9043;DHT22;4556;49.150;8.808;2023-02-26T00:46:36;0.90;99.90
9043;DHT22;4556;49.150;8.808;2023-02-26T00:49:14;-0.20;99.90
9043;DHT22;4556;49.150;8.808;2023-02-26T00:51:47;2.10;99.90
9043;DHT22;4556;49.150;8.808;2023-02-26T00:54:19;-0.20;99.90
9043;DHT22;4556;49.150;8.808;2023-02-26T00:56:47;1.90;99.90
9043;DHT22;4556;49.150;8.808;2023-02-26T00:59:15;-0.50;99.90
9043;DHT22;4556;49.150;8.808;2023-02-26T01:01:44;2.20;99.90
9043;DHT22;4556;49.150;8.808;2023-02-26T01:04:13;1.80;99.90
9043;DHT22;4556;49.150;8.808;2023-02-26T01:06:43;-0.30;99.90
9043;DHT22;4556;49.150;8.808;2023-02-26T01:09:16;-1.80;99.90
9043;DHT22;4556;49.150;8.808;2023-02-26T01:11:47;2.10;99.90
9043;DHT22;4556;49.150;8.808;2023-02-26T01:14:15;-0.40;99.90
9043;DHT22;4556;49.150;8.808;2023-02-26T01:16:50;-0.50;99.90
9043;DHT22;4556;49.150;8.808;2023-02-26T01:19:26;-0.50;99.90
9043;DHT22;4556;49.150;8.808;2023-02-26T01:22:01;-0.60;99.90
9043;DHT22;4556;49.150;8.808;2023-02-26T01:24:30;-0.60;99.90
9043;DHT22;4556;49.150;8.808;2023-02-26T01:29:24;-0.50;99.90
9043;DHT22;4556;49.150;8.808;2023-02-26T01:31:58;-0.60;99.90
9043;DHT22;4556;49.150;8.808;2023-02-26T01:34:34;0.00;99.90
9043;DHT22;4556;49.150;8.808;2023-02-26T01:37:11;-0.60;99.90
9043;DHT22;4556;49.150;8.808;2023-02-26T01:39:44;1.10;99.90
9043;DHT22;4556;49.150;8.808;2023-02-26T01:42:15;-0.70;99.90
9043;DHT22;4556;49.150;8.808;2023-02-26T01:44:54;0.60;99.90
9043;DHT22;4556;49.150;8.808;2023-02-26T01:47:29;-0.70;99.90
9043;DHT22;4556;49.150;8.808;2023-02-26T01:50:07;-0.70;99.90
9043;DHT22;4556;49.150;8.808;2023-02-26T01:53:14;-0.70;99.90
9043;DHT22;4556;49.150;8.808;2023-02-26T01:55:42;-0.70;99.90
9043;DHT22;4556;49.150;8.808;2023-02-26T01:58:10;0.70;99.90
9043;DHT22;4556;49.150;8.808;2023-02-26T02:00:41;-0.70;99.90
9043;DHT22;4556;49.150;8.808;2023-02-26T02:03:10;-0.80;99.90
9043;DHT22;4556;49.150;8.808;2023-02-26T02:05:41;-0.30;99.90
9043;DHT22;4556;49.150;8.808;2023-02-26T02:08:09;2.30;99.90
9043;DHT22;4556;49.150;8.808;2023-02-26T02:10:40;2.60;99.90
9043;DHT22;4556;49.150;8.808;2023-02-26T02:13:19;0.40;99.90
9043;DHT22;4556;49.150;8.808;2023-02-26T02:15:53;-0.70;99.90
9043;DHT22;4556;49.150;8.808;2023-02-26T02:18:33;-0.80;99.90
9043;DHT22;4556;49.150;8.808;2023-02-26T02:24:10;-0.40;99.90
9043;DHT22;4556;49.150;8.808;2023-02-26T02:27:07;2.30;99.90
9043;DHT22;4556;49.150;8.808;2023-02-26T02:30:08;-0.50;99.90
9043;DHT22;4556;49.150;8.808;2023-02-26T02:32:45;-0.70;99.90
9043;DHT22;4556;49.150;8.808;2023-02-26T02:35:19;-0.70;99.90
9043;DHT22;4556;49.150;8.808;2023-02-26T02:37:50;-0.80;99.90
9043;DHT22;4556;49.150;8.808;2023-02-26T02:40:22;-0.80;99.90
9043;DHT22;4556;49.150;8.808;2023-02-26T02:42:54;-0.90;99.90
9043;DHT22;4556;49.150;8.808;2023-02-26T02:45:26;-0.90;99.90
9043;DHT22;4556;49.150;8.808;2023-02-26T02:48:02;1.20;99.90
9043;DHT22;4556;49.150;8.808;2023-02-26T02:50:33;-1.00;99.90
9043;DHT22;4556;49.150;8.808;2023-02-26T02:53:03;1.00;99.90
9043;DHT22;4556;49.150;8.808;2023-02-26T02:55:35;-1.10;99.90
9043;DHT22;4556;49.150;8.808;2023-02-26T02:58:07;-1.10;99.90
9043;DHT22;4556;49.150;8.808;2023-02-26T03:00:39;0.50;99.90
9043;DHT22;4556;49.150;8.808;2023-02-26T03:03:15;-1.10;99.90
9043;DHT22;4556;49.150;8.808;2023-02-26T03:05:43;-1.10;99.90
9043;DHT22;4556;49.150;8.808;2023-02-26T03:08:13;-1.10;99.90
9043;DHT22;4556;49.150;8.808;2023-02-26T03:10:42;0.10;99.90
9043;DHT22;4556;49.150;8.808;2023-02-26T03:13:14;-1.10;99.90
9043;DHT22;4556;49.150;8.808;2023-02-26T03:15:47;-1.10;99.90
9043;DHT22;4556;49.150;8.808;2023-02-26T03:18:25;-0.70;99.90
9043;DHT22;4556;49.150;8.808;2023-02-26T03:21:04;0.30;99.90
9043;DHT22;4556;49.150;8.808;2023-02-26T03:23:36;-1.20;99.90
9043;DHT22;4556;49.150;8.808;2023-02-26T03:26:10;-1.20;99.90
9043;DHT22;4556;49.150;8.808;2023-02-26T03:28:45;-1.20;99.90
9043;DHT22;4556;49.150;8.808;2023-02-26T03:31:17;0.80;99.90
9043;DHT22;4556;49.150;8.808;2023-02-26T03:33:52;-1.20;99.90
9043;DHT22;4556;49.150;8.808;2023-02-26T03:36:23;-1.20;99.90
9043;DHT22;4556;49.150;8.808;2023-02-26T03:38:54;-1.20;99.90
9043;DHT22;4556;49.150;8.808;2023-02-26T03:41:26;-1.20;99.90
9043;DHT22;4556;49.150;8.808;2023-02-26T03:43:58;-1.30;99.90
9043;DHT22;4556;49.150;8.808;2023-02-26T03:46:29;-1.30;99.90
9043;DHT22;4556;49.150;8.808;2023-02-26T03:49:06;-1.30;99.90
9043;DHT22;4556;49.150;8.808;2023-02-26T03:51:36;-1.30;99.90
9043;DHT22;4556;49.150;8.808;2023-02-26T03:54:07;-1.40;99.90
9043;DHT22;4556;49.150;8.808;2023-02-26T03:56:39;-1.30;99.90
9043;DHT22;4556;49.150;8.808;2023-02-26T03:59:07;-1.30;99.90
9043;DHT22;4556;49.150;8.808;2023-02-26T04:01:38;-1.30;99.90
9043;DHT22;4556;49.150;8.808;2023-02-26T04:04:16;1.60;99.90
9043;DHT22;4556;49.150;8.808;2023-02-26T04:06:51;-1.30;99.90
9043;DHT22;4556;49.150;8.808;2023-02-26T04:09:22;0.90;99.90
9043;DHT22;4556;49.150;8.808;2023-02-26T04:11:50;-1.30;99.90
9043;DHT22;4556;49.150;8.808;2023-02-26T04:16:45;-1.30;99.90
9043;DHT22;4556;49.150;8.808;2023-02-26T04:24:08;-1.40;99.90
9043;DHT22;4556;49.150;8.808;2023-02-26T04:26:35;-1.40;99.90
9043;DHT22;4556;49.150;8.808;2023-02-26T04:29:02;1.10;99.90
9043;DHT22;4556;49.150;8.808;2023-02-26T04:31:29;-1.40;99.90
9043;DHT22;4556;49.150;8.808;2023-02-26T04:33:56;0.40;99.90
9043;DHT22;4556;49.150;8.808;2023-02-26T04:36:25;1.20;99.90
9043;DHT22;4556;49.150;8.808;2023-02-26T04:38:54;-1.50;99.90
9043;DHT22;4556;49.150;8.808;2023-02-26T04:43:48;-1.50;99.90
9043;DHT22;4556;49.150;8.808;2023-02-26T04:51:09;-1.50;99.90
9043;DHT22;4556;49.150;8.808;2023-02-26T04:53:38;0.10;99.90
9043;DHT22;4556;49.150;8.808;2023-02-26T04:56:05;0.20;99.90
9043;DHT22;4556;49.150;8.808;2023-02-26T04:58:33;1.20;99.90
9043;DHT22;4556;49.150;8.808;2023-02-26T05:01:00;-1.60;99.90
9043;DHT22;4556;49.150;8.808;2023-02-26T05:08:22;-1.60;99.90
9043;DHT22;4556;49.150;8.808;2023-02-26T05:10:51;2.30;99.90
9043;DHT22;4556;49.150;8.808;2023-02-26T05:13:18;0.90;99.90
9043;DHT22;4556;49.150;8.808;2023-02-26T05:15:46;-1.40;99.90
9043;DHT22;4556;49.150;8.808;2023-02-26T05:18:12;1.10;99.90
9043;DHT22;4556;49.150;8.808;2023-02-26T05:25:34;-1.80;99.90
9043;DHT22;4556;49.150;8.808;2023-02-26T05:28:02;0.20;99.90
9043;DHT22;4556;49.150;8.808;2023-02-26T05:32:57;-1.80;99.90
9043;DHT22;4556;49.150;8.808;2023-02-26T05:35:23;-1.80;99.90
9043;DHT22;4556;49.150;8.808;2023-02-26T05:37:50;-1.50;99.90
9043;DHT22;4556;49.150;8.808;2023-02-26T05:40:17;-1.70;99.90
9043;DHT22;4556;49.150;8.808;2023-02-26T05:42:44;-1.70;99.90
9043;DHT22;4556;49.150;8.808;2023-02-26T05:45:12;-1.80;99.90
9043;DHT22;4556;49.150;8.808;2023-02-26T05:47:40;-1.80;99.90
9043;DHT22;4556;49.150;8.808;2023-02-26T05:50:07;-1.80;99.90
9043;DHT22;4556;49.150;8.808;2023-02-26T05:52:35;-1.80;99.90
9043;DHT22;4556;49.150;8.808;2023-02-26T05:55:02;-0.10;99.90
9043;DHT22;4556;49.150;8.808;2023-02-26T05:57:29;-1.80;99.90
9043;DHT22;4556;49.150;8.808;2023-02-26T05:59:56;2.00;99.90
9043;DHT22;4556;49.150;8.808;2023-02-26T06:02:24;0.80;99.90
9043;DHT22;4556;49.150;8.808;2023-02-26T06:04:51;-0.70;99.90
9043;DHT22;4556;49.150;8.808;2023-02-26T06:07:19;1.60;99.90
9043;DHT22;4556;49.150;8.808;2023-02-26T06:12:13;-1.80;99.90
9043;DHT22;4556;49.150;8.808;2023-02-26T06:14:40;0.30;99.90
9043;DHT22;4556;49.150;8.808;2023-02-26T06:19:36;-1.80;99.90
9043;DHT22;4556;49.150;8.808;2023-02-26T06:36:49;-1.80;99.90
9043;DHT22;4556;49.150;8.808;2023-02-26T06:41:43;-1.80;99.90
9043;DHT22;4556;49.150;8.808;2023-02-26T06:44:10;-1.70;99.90
9043;DHT22;4556;49.150;8.808;2023-02-26T06:46:37;-1.70;99.90
9043;DHT22;4556;49.150;8.808;2023-02-26T06:49:07;-1.60;99.90
9043;DHT22;4556;49.150;8.808;2023-02-26T06:51:34;-1.60;99.90
9043;DHT22;4556;49.150;8.808;2023-02-26T06:54:03;-1.60;99.90
9043;DHT22;4556;49.150;8.808;2023-02-26T06:58:58;-1.50;99.90
9043;DHT22;4556;49.150;8.808;2023-02-26T07:01:25;-1.40;99.90
9043;DHT22;4556;49.150;8.808;2023-02-26T07:03:52;-1.30;99.90
9043;DHT22;4556;49.150;8.808;2023-02-26T07:06:19;-1.30;99.90
9043;DHT22;4556;49.150;8.808;2023-02-26T07:08:46;-1.20;99.90
9043;DHT22;4556;49.150;8.808;2023-02-26T07:11:14;-1.20;99.90
9043;DHT22;4556;49.150;8.808;2023-02-26T07:13:41;0.50;99.90
9043;DHT22;4556;49.150;8.808;2023-02-26T07:18:36;-1.20;99.90
9043;DHT22;4556;49.150;8.808;2023-02-26T07:21:04;-1.70;99.90
9043;DHT22;4556;49.150;8.808;2023-02-26T07:23:32;-0.90;99.90
9043;DHT22;4556;49.150;8.808;2023-02-26T07:28:28;-1.30;99.90
9043;DHT22;4556;49.150;8.808;2023-02-26T07:30:55;-0.50;99.90
9043;DHT22;4556;49.150;8.808;2023-02-26T07:33:23;-1.40;99.90
9043;DHT22;4556;49.150;8.808;2023-02-26T07:43:13;-1.40;99.90
9043;DHT22;4556;49.150;8.808;2023-02-26T07:45:41;-1.50;99.90
9043;DHT22;4556;49.150;8.808;2023-02-26T07:48:08;-1.30;99.90
9043;DHT22;4556;49.150;8.808;2023-02-26T07:50:35;-1.40;99.90
9043;DHT22;4556;49.150;8.808;2023-02-26T08:02:53;-2.00;99.90
9043;DHT22;4556;49.150;8.808;2023-02-26T08:07:47;-1.80;99.90
9043;DHT22;4556;49.150;8.808;2023-02-26T08:10:15;1.20;99.90
9043;DHT22;4556;49.150;8.808;2023-02-26T08:15:10;-0.80;99.90
9043;DHT22;4556;49.150;8.808;2023-02-26T08:17:40;-0.70;99.90
9043;DHT22;4556;49.150;8.808;2023-02-26T08:20:11;2.40;99.90
9043;DHT22;4556;49.150;8.808;2023-02-26T08:22:40;-0.70;99.90
9043;DHT22;4556;49.150;8.808;2023-02-26T08:25:07;-3.70;99.90
9043;DHT22;4556;49.150;8.808;2023-02-26T08:30:02;-1.90;99.90
9043;DHT22;4556;49.150;8.808;2023-02-26T08:32:29;-0.50;99.90
9043;DHT22;4556;49.150;8.808;2023-02-26T08:37:25;0.50;99.90
9043;DHT22;4556;49.150;8.808;2023-02-26T08:39:53;2.30;99.90
9043;DHT22;4556;49.150;8.808;2023-02-26T08:42:19;1.50;99.90
9043;DHT22;4556;49.150;8.808;2023-02-26T08:44:47;0.00;99.90
9043;DHT22;4556;49.150;8.808;2023-02-26T08:47:14;0.00;99.90
9043;DHT22;4556;49.150;8.808;2023-02-26T08:52:09;0.10;99.90
9043;DHT22;4556;49.150;8.808;2023-02-26T08:54:37;2.30;99.90
9043;DHT22;4556;49.150;8.808;2023-02-26T08:57:04;1.40;99.90
9043;DHT22;4556;49.150;8.808;2023-02-26T09:01:58;0.30;99.90
9043;DHT22;4556;49.150;8.808;2023-02-26T09:04:26;1.70;99.90
9043;DHT22;4556;49.150;8.808;2023-02-26T09:06:53;3.20;99.90
9043;DHT22;4556;49.150;8.808;2023-02-26T09:09:20;0.10;99.90
9043;DHT22;4556;49.150;8.808;2023-02-26T09:11:49;0.20;99.90
9043;DHT22;4556;49.150;8.808;2023-02-26T09:14:16;0.40;99.90
9043;DHT22;4556;49.150;8.808;2023-02-26T09:16:43;0.50;99.90
9043;DHT22;4556;49.150;8.808;2023-02-26T09:19:10;3.50;99.90
9043;DHT22;4556;49.150;8.808;2023-02-26T09:21:37;0.20;99.90
9043;DHT22;4556;49.150;8.808;2023-02-26T09:24:04;0.30;99.90
9043;DHT22;4556;49.150;8.808;2023-02-26T09:29:00;0.50;99.90
9043;DHT22;4556;49.150;8.808;2023-02-26T09:31:27;3.40;99.90
9043;DHT22;4556;49.150;8.808;2023-02-26T09:36:21;0.70;99.90
9043;DHT22;4556;49.150;8.808;2023-02-26T09:38:48;0.60;99.90
9043;DHT22;4556;49.150;8.808;2023-02-26T09:41:20;0.40;99.90
9043;DHT22;4556;49.150;8.808;2023-02-26T09:44:23;1.20;99.90
9043;DHT22;4556;49.150;8.808;2023-02-26T09:46:58;0.50;99.90
9043;DHT22;4556;49.150;8.808;2023-02-26T09:49:37;0.50;99.90
9043;DHT22;4556;49.150;8.808;2023-02-26T09:52:17;0.50;99.90
9043;DHT22;4556;49.150;8.808;2023-02-26T09:54:48;0.50;99.90
9043;DHT22;4556;49.150;8.808;2023-02-26T09:57:25;0.50;99.90
9043;DHT22;4556;49.150;8.808;2023-02-26T09:59:55;0.60;99.90
9043;DHT22;4556;49.150;8.808;2023-02-26T10:02:34;0.60;99.90
9043;DHT22;4556;49.150;8.808;2023-02-26T10:05:15;3.60;99.90
9043;DHT22;4556;49.150;8.808;2023-02-26T10:07:48;1.20;99.90
9043;DHT22;4556;49.150;8.808;2023-02-26T10:10:27;0.70;99.90
9043;DHT22;4556;49.150;8.808;2023-02-26T10:12:58;3.90;99.90
9043;DHT22;4556;49.150;8.808;2023-02-26T10:15:30;-0.40;99.90
9043;DHT22;4556;49.150;8.808;2023-02-26T10:18:05;3.00;99.90
9043;DHT22;4556;49.150;8.808;2023-02-26T10:20:40;0.90;99.90
9043;DHT22;4556;49.150;8.808;2023-02-26T10:23:18;0.80;99.90
9043;DHT22;4556;49.150;8.808;2023-02-26T10:25:48;3.20;99.90
9043;DHT22;4556;49.150;8.808;2023-02-26T10:28:37;1.00;99.90
9043;DHT22;4556;49.150;8.808;2023-02-26T10:31:14;4.20;99.90
9043;DHT22;4556;49.150;8.808;2023-02-26T10:33:50;1.00;99.90
9043;DHT22;4556;49.150;8.808;2023-02-26T10:36:23;1.60;99.90
9043;DHT22;4556;49.150;8.808;2023-02-26T10:38:58;1.00;99.90
9043;DHT22;4556;49.150;8.808;2023-02-26T10:41:30;1.00;99.90
9043;DHT22;4556;49.150;8.808;2023-02-26T10:44:02;3.20;99.90
9043;DHT22;4556;49.150;8.808;2023-02-26T10:46:39;1.10;99.90
9043;DHT22;4556;49.150;8.808;2023-02-26T10:49:33;1.10;99.90
9043;DHT22;4556;49.150;8.808;2023-02-26T10:52:11;2.50;99.90
9043;DHT22;4556;49.150;8.808;2023-02-26T10:54:46;0.80;99.90
9043;DHT22;4556;49.150;8.808;2023-02-26T10:57:18;0.70;99.90
9043;DHT22;4556;49.150;8.808;2023-02-26T11:02:33;0.70;99.90
9043;DHT22;4556;49.150;8.808;2023-02-26T11:05:03;0.70;99.90
9043;DHT22;4556;49.150;8.808;2023-02-26T11:07:32;1.00;99.90
9043;DHT22;4556;49.150;8.808;2023-02-26T11:10:12;1.80;99.90
9043;DHT22;4556;49.150;8.808;2023-02-26T11:12:39;1.50;99.90
9043;DHT22;4556;49.150;8.808;2023-02-26T11:15:12;3.30;99.90
9043;DHT22;4556;49.150;8.808;2023-02-26T11:17:41;2.90;99.90
9043;DHT22;4556;49.150;8.808;2023-02-26T11:20:30;1.20;99.90
9043;DHT22;4556;49.150;8.808;2023-02-26T11:23:01;1.00;99.90
9043;DHT22;4556;49.150;8.808;2023-02-26T11:25:31;1.20;99.90
9043;DHT22;4556;49.150;8.808;2023-02-26T11:28:03;1.30;99.90
9043;DHT22;4556;49.150;8.808;2023-02-26T11:30:34;1.30;99.90
9043;DHT22;4556;49.150;8.808;2023-02-26T11:33:14;1.20;99.90
9043;DHT22;4556;49.150;8.808;2023-02-26T11:35:42;4.50;99.90
9043;DHT22;4556;49.150;8.808;2023-02-26T11:38:21;1.50;99.90
9043;DHT22;4556;49.150;8.808;2023-02-26T11:40:54;1.50;99.90
9043;DHT22;4556;49.150;8.808;2023-02-26T11:43:23;4.00;99.90
9043;DHT22;4556;49.150;8.808;2023-02-26T11:45:54;1.90;99.90
9043;DHT22;4556;49.150;8.808;2023-02-26T11:48:30;2.10;99.90
9043;DHT22;4556;49.150;8.808;2023-02-26T11:51:03;1.90;99.90
9043;DHT22;4556;49.150;8.808;2023-02-26T11:53:33;2.00;99.90
9043;DHT22;4556;49.150;8.808;2023-02-26T11:56:03;4.00;99.90
9043;DHT22;4556;49.150;8.808;2023-02-26T11:58:36;1.70;99.90
9043;DHT22;4556;49.150;8.808;2023-02-26T12:01:05;2.50;99.90
9043;DHT22;4556;49.150;8.808;2023-02-26T12:03:36;1.70;99.90
9043;DHT22;4556;49.150;8.808;2023-02-26T12:06:06;1.80;99.90
9043;DHT22;4556;49.150;8.808;2023-02-26T12:08:35;1.60;99.90
9043;DHT22;4556;49.150;8.808;2023-02-26T12:11:15;1.70;99.90
9043;DHT22;4556;49.150;8.808;2023-02-26T12:13:56;2.10;99.90
9043;DHT22;4556;49.150;8.808;2023-02-26T12:16:30;3.00;99.90
9043;DHT22;4556;49.150;8.808;2023-02-26T12:19:12;4.60;99.90
9043;DHT22;4556;49.150;8.808;2023-02-26T12:22:16;1.70;99.90
9043;DHT22;4556;49.150;8.808;2023-02-26T12:25:25;1.70;99.90
9043;DHT22;4556;49.150;8.808;2023-02-26T12:28:29;1.70;99.90
9043;DHT22;4556;49.150;8.808;2023-02-26T12:33:57;1.80;99.90
9043;DHT22;4556;49.150;8.808;2023-02-26T12:36:39;1.90;99.90
9043;DHT22;4556;49.150;8.808;2023-02-26T12:39:22;2.00;99.90
9043;DHT22;4556;49.150;8.808;2023-02-26T12:42:02;1.90;99.90
9043;DHT22;4556;49.150;8.808;2023-02-26T12:44:53;2.10;99.90
9043;DHT22;4556;49.150;8.808;2023-02-26T12:47:35;2.00;99.90
9043;DHT22;4556;49.150;8.808;2023-02-26T12:50:19;2.70;99.90
9043;DHT22;4556;49.150;8.808;2023-02-26T12:53:07;2.10;99.90
9043;DHT22;4556;49.150;8.808;2023-02-26T12:55:46;3.00;99.90
9043;DHT22;4556;49.150;8.808;2023-02-26T12:58:41;2.10;99.90
9043;DHT22;4556;49.150;8.808;2023-02-26T13:01:19;3.00;99.90
9043;DHT22;4556;49.150;8.808;2023-02-26T13:10:20;1.90;99.90
9043;DHT22;4556;49.150;8.808;2023-02-26T13:13:00;2.00;99.90
9043;DHT22;4556;49.150;8.808;2023-02-26T13:15:45;5.30;99.90
9043;DHT22;4556;49.150;8.808;2023-02-26T13:18:19;2.30;99.90
9043;DHT22;4556;49.150;8.808;2023-02-26T13:20:54;5.30;99.90
9043;DHT22;4556;49.150;8.808;2023-02-26T13:23:29;2.50;99.90
9043;DHT22;4556;49.150;8.808;2023-02-26T13:26:01;2.60;99.90
9043;DHT22;4556;49.150;8.808;2023-02-26T13:28:37;5.90;99.90
9043;DHT22;4556;49.150;8.808;2023-02-26T13:31:12;4.80;99.90
9043;DHT22;4556;49.150;8.808;2023-02-26T13:33:54;2.40;99.90
9043;DHT22;4556;49.150;8.808;2023-02-26T13:36:23;5.40;99.90
9043;DHT22;4556;49.150;8.808;2023-02-26T13:39:00;2.30;99.90
9043;DHT22;4556;49.150;8.808;2023-02-26T13:41:39;3.10;99.90
9043;DHT22;4556;49.150;8.808;2023-02-26T13:44:18;2.20;99.90
9043;DHT22;4556;49.150;8.808;2023-02-26T13:47:11;5.40;99.90
9043;DHT22;4556;49.150;8.808;2023-02-26T13:49:54;2.20;99.90
9043;DHT22;4556;49.150;8.808;2023-02-26T13:52:25;4.90;99.90
9043;DHT22;4556;49.150;8.808;2023-02-26T13:54:53;3.10;99.90
9043;DHT22;4556;49.150;8.808;2023-02-26T13:57:32;2.20;99.90
9043;DHT22;4556;49.150;8.808;2023-02-26T14:00:05;2.10;99.90
9043;DHT22;4556;49.150;8.808;2023-02-26T14:02:45;2.40;99.90
9043;DHT22;4556;49.150;8.808;2023-02-26T14:05:32;3.80;99.90
9043;DHT22;4556;49.150;8.808;2023-02-26T14:08:19;2.90;99.90
9043;DHT22;4556;49.150;8.808;2023-02-26T14:10:55;2.10;99.90
9043;DHT22;4556;49.150;8.808;2023-02-26T14:13:34;3.00;99.90
9043;DHT22;4556;49.150;8.808;2023-02-26T14:16:09;3.20;99.90
9043;DHT22;4556;49.150;8.808;2023-02-26T14:18:42;2.40;99.90
9043;DHT22;4556;49.150;8.808;2023-02-26T14:21:48;2.60;99.90
9043;DHT22;4556;49.150;8.808;2023-02-26T14:24:19;2.60;99.90
9043;DHT22;4556;49.150;8.808;2023-02-26T14:26:49;2.60;99.90
9043;DHT22;4556;49.150;8.808;2023-02-26T14:29:25;2.50;99.90
9043;DHT22;4556;49.150;8.808;2023-02-26T14:32:04;3.60;99.90
9043;DHT22;4556;49.150;8.808;2023-02-26T14:34:34;2.40;99.90
9043;DHT22;4556;49.150;8.808;2023-02-26T14:37:03;3.90;99.90
9043;DHT22;4556;49.150;8.808;2023-02-26T14:39:35;2.10;99.90
9043;DHT22;4556;49.150;8.808;2023-02-26T14:42:05;2.70;99.90
9043;DHT22;4556;49.150;8.808;2023-02-26T14:44:37;2.80;99.90
9043;DHT22;4556;49.150;8.808;2023-02-26T14:47:10;2.90;99.90
9043;DHT22;4556;49.150;8.808;2023-02-26T14:49:39;2.80;99.90
9043;DHT22;4556;49.150;8.808;2023-02-26T14:55:26;2.50;99.90
9043;DHT22;4556;49.150;8.808;2023-02-26T14:58:07;1.30;99.90
9043;DHT22;4556;49.150;8.808;2023-02-26T15:00:41;2.20;99.90
9043;DHT22;4556;49.150;8.808;2023-02-26T15:03:40;3.00;99.90
9043;DHT22;4556;49.150;8.808;2023-02-26T15:06:31;2.00;99.90
9043;DHT22;4556;49.150;8.808;2023-02-26T15:09:09;5.30;99.90
9043;DHT22;4556;49.150;8.808;2023-02-26T15:12:02;2.70;99.90
9043;DHT22;4556;49.150;8.808;2023-02-26T15:14:47;2.30;99.90
9043;DHT22;4556;49.150;8.808;2023-02-26T15:17:30;2.40;99.90
9043;DHT22;4556;49.150;8.808;2023-02-26T15:20:08;2.50;99.90
9043;DHT22;4556;49.150;8.808;2023-02-26T15:22:49;2.60;99.90
9043;DHT22;4556;49.150;8.808;2023-02-26T15:25:24;2.50;99.90
9043;DHT22;4556;49.150;8.808;2023-02-26T15:27:53;2.30;99.90
9043;DHT22;4556;49.150;8.808;2023-02-26T15:30:23;2.30;99.90
9043;DHT22;4556;49.150;8.808;2023-02-26T15:32:57;2.20;99.90
9043;DHT22;4556;49.150;8.808;2023-02-26T15:35:27;2.20;99.90
9043;DHT22;4556;49.150;8.808;2023-02-26T15:37:58;2.00;99.90
9043;DHT22;4556;49.150;8.808;2023-02-26T15:40:28;2.00;99.90
9043;DHT22;4556;49.150;8.808;2023-02-26T15:42:57;4.90;99.90
9043;DHT22;4556;49.150;8.808;2023-02-26T15:45:26;2.80;99.90
9043;DHT22;4556;49.150;8.808;2023-02-26T15:47:58;2.00;99.90
9043;DHT22;4556;49.150;8.808;2023-02-26T15:50:32;3.70;99.90
9043;DHT22;4556;49.150;8.808;2023-02-26T15:53:02;5.10;99.90
9043;DHT22;4556;49.150;8.808;2023-02-26T15:55:33;1.90;99.90
9043;DHT22;4556;49.150;8.808;2023-02-26T15:58:02;3.50;99.90
9043;DHT22;4556;49.150;8.808;2023-02-26T16:00:32;2.80;99.90
9043;DHT22;4556;49.150;8.808;2023-02-26T16:03:00;3.70;99.90
9043;DHT22;4556;49.150;8.808;2023-02-26T16:10:31;1.80;99.90
9043;DHT22;4556;49.150;8.808;2023-02-26T16:12:59;1.80;99.90
9043;DHT22;4556;49.150;8.808;2023-02-26T16:15:30;2.00;99.90
9043;DHT22;4556;49.150;8.808;2023-02-26T16:18:00;1.80;99.90
9043;DHT22;4556;49.150;8.808;2023-02-26T16:20:30;1.80;99.90
9043;DHT22;4556;49.150;8.808;2023-02-26T16:23:02;1.80;99.90
9043;DHT22;4556;49.150;8.808;2023-02-26T16:25:33;1.90;99.90
9043;DHT22;4556;49.150;8.808;2023-02-26T16:28:03;3.10;99.90
9043;DHT22;4556;49.150;8.808;2023-02-26T16:30:34;1.90;99.90
9043;DHT22;4556;49.150;8.808;2023-02-26T16:33:08;1.70;99.90
9043;DHT22;4556;49.150;8.808;2023-02-26T16:35:40;2.00;99.90
9043;DHT22;4556;49.150;8.808;2023-02-26T16:38:14;2.00;99.90
9043;DHT22;4556;49.150;8.808;2023-02-26T16:40:46;1.70;99.90
9043;DHT22;4556;49.150;8.808;2023-02-26T16:43:33;3.70;99.90
9043;DHT22;4556;49.150;8.808;2023-02-26T16:46:03;1.70;99.90
9043;DHT22;4556;49.150;8.808;2023-02-26T16:48:49;1.80;99.90
9043;DHT22;4556;49.150;8.808;2023-02-26T16:51:19;1.70;99.90
9043;DHT22;4556;49.150;8.808;2023-02-26T16:53:48;1.90;99.90
9043;DHT22;4556;49.150;8.808;2023-02-26T16:56:22;1.80;99.90
9043;DHT22;4556;49.150;8.808;2023-02-26T16:58:53;1.00;99.90
9043;DHT22;4556;49.150;8.808;2023-02-26T17:01:22;1.70;99.90
9043;DHT22;4556;49.150;8.808;2023-02-26T17:03:55;1.70;99.90
9043;DHT22;4556;49.150;8.808;2023-02-26T17:06:27;5.10;99.90
9043;DHT22;4556;49.150;8.808;2023-02-26T17:08:57;3.20;99.90
9043;DHT22;4556;49.150;8.808;2023-02-26T17:11:27;5.30;99.90
9043;DHT22;4556;49.150;8.808;2023-02-26T17:14:13;0.60;99.90
9043;DHT22;4556;49.150;8.808;2023-02-26T17:16:44;1.60;99.90
9043;DHT22;4556;49.150;8.808;2023-02-26T17:21:44;1.70;99.90
9043;DHT22;4556;49.150;8.808;2023-02-26T17:24:16;4.10;99.90
9043;DHT22;4556;49.150;8.808;2023-02-26T17:26:45;3.80;99.90
9043;DHT22;4556;49.150;8.808;2023-02-26T17:29:19;1.50;99.90
9043;DHT22;4556;49.150;8.808;2023-02-26T17:31:47;1.70;99.90
9043;DHT22;4556;49.150;8.808;2023-02-26T17:34:17;3.90;99.90
9043;DHT22;4556;49.150;8.808;2023-02-26T17:36:44;4.40;99.90
9043;DHT22;4556;49.150;8.808;2023-02-26T17:39:12;4.60;99.90
9043;DHT22;4556;49.150;8.808;2023-02-26T17:41:42;4.10;99.90
9043;DHT22;4556;49.150;8.808;2023-02-26T17:44:09;4.80;99.90
9043;DHT22;4556;49.150;8.808;2023-02-26T17:46:36;1.90;99.90
9043;DHT22;4556;49.150;8.808;2023-02-26T17:49:04;1.40;99.90
9043;DHT22;4556;49.150;8.808;2023-02-26T17:53:59;1.40;99.90
9043;DHT22;4556;49.150;8.808;2023-02-26T17:56:28;1.20;99.90
9043;DHT22;4556;49.150;8.808;2023-02-26T17:58:56;1.20;99.90
9043;DHT22;4556;49.150;8.808;2023-02-26T18:01:23;1.20;99.90
9043;DHT22;4556;49.150;8.808;2023-02-26T18:03:52;1.10;99.90
9043;DHT22;4556;49.150;8.808;2023-02-26T18:06:20;1.10;99.90
9043;DHT22;4556;49.150;8.808;2023-02-26T18:08:49;1.00;99.90
9043;DHT22;4556;49.150;8.808;2023-02-26T18:11:17;1.00;99.90
9043;DHT22;4556;49.150;8.808;2023-02-26T18:13:45;1.00;99.90
9043;DHT22;4556;49.150;8.808;2023-02-26T18:16:16;1.00;99.90
9043;DHT22;4556;49.150;8.808;2023-02-26T18:18:43;2.50;99.90
9043;DHT22;4556;49.150;8.808;2023-02-26T18:21:10;1.00;99.90
9043;DHT22;4556;49.150;8.808;2023-02-26T18:23:37;1.90;99.90
9043;DHT22;4556;49.150;8.808;2023-02-26T18:26:06;1.00;99.90
9043;DHT22;4556;49.150;8.808;2023-02-26T18:28:36;1.00;99.90
9043;DHT22;4556;49.150;8.808;2023-02-26T18:31:03;1.00;99.90
9043;DHT22;4556;49.150;8.808;2023-02-26T18:33:33;1.00;99.90
9043;DHT22;4556;49.150;8.808;2023-02-26T18:36:03;1.10;99.90
9043;DHT22;4556;49.150;8.808;2023-02-26T18:38:30;1.10;99.90
9043;DHT22;4556;49.150;8.808;2023-02-26T18:40:57;1.10;99.90
9043;DHT22;4556;49.150;8.808;2023-02-26T18:43:28;1.10;99.90
9043;DHT22;4556;49.150;8.808;2023-02-26T18:45:55;1.00;99.90
9043;DHT22;4556;49.150;8.808;2023-02-26T18:48:26;2.30;99.90
9043;DHT22;4556;49.150;8.808;2023-02-26T18:50:53;2.40;99.90
9043;DHT22;4556;49.150;8.808;2023-02-26T18:53:21;0.90;99.90